sensor_id;sensor_type;location;lat;lon;timestamp;pressure;altitude;pressure_sealevel;temperature;humidity
29239;BME280;16267;48.194;11.546;2023-04-12T00:00:49;95583.19;;;7.46;66.52
29239;BME280;16267;48.194;11.546;2023-04-12T00:03:17;95577.06;;;7.45;66.50
29239;BME280;16267;48.194;11.546;2023-04-12T00:05:45;95576.31;;;7.45;66.63
29239;BME280;16267;48.194;11.546;2023-04-12T00:08:12;95574.03;;;7.43;67.41
29239;BME280;16267;48.194;11.546;2023-04-12T00:10:38;95573.25;;;7.43;66.88
29239;BME280;16267;48.194;11.546;2023-04-12T00:13:04;95566.41;;;7.42;67.36
29239;BME280;16267;48.194;11.546;2023-04-12T00:15:30;95571.00;;;7.41;67.19
29239;BME280;16267;48.194;11.546;2023-04-12T00:17:56;95559.19;;;7.38;67.20
29239;BME280;16267;48.194;11.546;2023-04-12T00:20:21;95550.41;;;7.38;67.42
29239;BME280;16267;48.194;11.546;2023-04-12T00:22:47;95549.25;;;7.39;67.62
29239;BME280;16267;48.194;11.546;2023-04-12T00:25:13;95556.50;;;7.38;67.90
29239;BME280;16267;48.194;11.546;2023-04-12T00:27:39;95542.41;;;7.38;68.10
29239;BME280;16267;48.194;11.546;2023-04-12T00:30:06;95547.75;;;7.38;67.88
29239;BME280;16267;48.194;11.546;2023-04-12T00:32:32;95547.34;;;7.40;67.90
29239;BME280;16267;48.194;11.546;2023-04-12T00:34:58;95538.94;;;7.41;68.19
29239;BME280;16267;48.194;11.546;2023-04-12T00:37:24;95535.53;;;7.41;68.25
29239;BME280;16267;48.194;11.546;2023-04-12T00:39:50;95534.38;;;7.42;68.52
29239;BME280;16267;48.194;11.546;2023-04-12T00:42:15;95525.59;;;7.41;68.43
29239;BME280;16267;48.194;11.546;2023-04-12T00:44:41;95534.38;;;7.42;67.91
29239;BME280;16267;48.194;11.546;2023-04-12T00:47:07;95525.59;;;7.41;68.13
29239;BME280;16267;48.194;11.546;2023-04-12T00:49:33;95517.97;;;7.43;67.93
29239;BME280;16267;48.194;11.546;2023-04-12T00:52:09;95522.16;;;7.44;67.54
29239;BME280;16267;48.194;11.546;2023-04-12T00:54:41;95514.91;;;7.45;67.90
29239;BME280;16267;48.194;11.546;2023-04-12T00:57:08;95513.75;;;7.46;67.89
29239;BME280;16267;48.194;11.546;2023-04-12T00:59:33;95512.59;;;7.47;68.22
29239;BME280;16267;48.194;11.546;2023-04-12T01:02:00;95508.44;;;7.46;68.52
29239;BME280;16267;48.194;11.546;2023-04-12T01:04:26;95505.34;;;7.47;68.67
29239;BME280;16267;48.194;11.546;2023-04-12T01:09:58;95491.25;;;7.47;68.37
29239;BME280;16267;48.194;11.546;2023-04-12T01:15:29;95499.25;;;7.47;67.87
29239;BME280;16267;48.194;11.546;2023-04-12T01:18:16;95494.66;;;7.47;67.55
29239;BME280;16267;48.194;11.546;2023-04-12T01:21:00;95490.09;;;7.48;67.46
29239;BME280;16267;48.194;11.546;2023-04-12T01:24:14;95491.63;;;7.49;67.50
29239;BME280;16267;48.194;11.546;2023-04-12T01:26:47;95494.63;;;7.51;68.23
29239;BME280;16267;48.194;11.546;2023-04-12T01:29:21;95489.34;;;7.44;69.53
29239;BME280;16267;48.194;11.546;2023-04-12T01:31:57;95487.06;;;7.46;70.36
29239;BME280;16267;48.194;11.546;2023-04-12T01:34:25;95490.50;;;7.46;69.49
29239;BME280;16267;48.194;11.546;2023-04-12T01:36:54;95484.75;;;7.48;68.79
29239;BME280;16267;48.194;11.546;2023-04-12T01:39:26;95483.59;;;7.49;68.40
29239;BME280;16267;48.194;11.546;2023-04-12T01:41:52;95485.13;;;7.50;68.63
29239;BME280;16267;48.194;11.546;2023-04-12T01:44:17;95488.19;;;7.45;69.53
29239;BME280;16267;48.194;11.546;2023-04-12T01:46:44;95483.63;;;7.45;70.00
29239;BME280;16267;48.194;11.546;2023-04-12T01:49:12;95500.75;;;7.48;69.73
29239;BME280;16267;48.194;11.546;2023-04-12T01:51:59;95494.28;;;7.45;69.42
29239;BME280;16267;48.194;11.546;2023-04-12T01:54:36;95490.50;;;7.46;70.73
29239;BME280;16267;48.194;11.546;2023-04-12T01:57:04;95491.63;;;7.45;70.77
29239;BME280;16267;48.194;11.546;2023-04-12T01:59:40;95493.53;;;7.45;71.15
29239;BME280;16267;48.194;11.546;2023-04-12T02:02:08;95485.59;;;7.37;72.86
29239;BME280;16267;48.194;11.546;2023-04-12T02:04:36;95496.25;;;7.37;73.57
29239;BME280;16267;48.194;11.546;2023-04-12T02:07:03;95492.81;;;7.37;74.43
29239;BME280;16267;48.194;11.546;2023-04-12T02:09:29;95494.72;;;7.36;74.61
29239;BME280;16267;48.194;11.546;2023-04-12T02:11:55;95490.22;;;7.26;76.20
29239;BME280;16267;48.194;11.546;2023-04-12T02:14:21;95487.16;;;7.28;76.90
29239;BME280;16267;48.194;11.546;2023-04-12T02:16:47;95482.56;;;7.28;76.14
29239;BME280;16267;48.194;11.546;2023-04-12T02:19:15;95485.25;;;7.28;75.90
29239;BME280;16267;48.194;11.546;2023-04-12T02:21:42;95484.47;;;7.28;76.75
29239;BME280;16267;48.194;11.546;2023-04-12T02:24:09;95474.59;;;7.25;77.88
29239;BME280;16267;48.194;11.546;2023-04-12T02:26:36;95479.56;;;7.26;77.91
29239;BME280;16267;48.194;11.546;2023-04-12T02:29:07;95482.63;;;7.18;79.52
29239;BME280;16267;48.194;11.546;2023-04-12T02:31:34;95479.19;;;7.17;79.49
29239;BME280;16267;48.194;11.546;2023-04-12T02:34:01;95479.59;;;7.12;80.33
29239;BME280;16267;48.194;11.546;2023-04-12T02:36:28;95472.72;;;7.14;80.47
29239;BME280;16267;48.194;11.546;2023-04-12T02:38:54;95476.19;;;7.15;81.49
29239;BME280;16267;48.194;11.546;2023-04-12T02:41:21;95488.00;;;7.14;81.09
29239;BME280;16267;48.194;11.546;2023-04-12T02:43:47;95483.81;;;7.13;81.27
29239;BME280;16267;48.194;11.546;2023-04-12T02:46:21;95473.13;;;7.13;81.16
29239;BME280;16267;48.194;11.546;2023-04-12T02:48:48;95473.50;;;7.11;82.00
29239;BME280;16267;48.194;11.546;2023-04-12T02:51:14;95480.03;;;7.07;82.35
29239;BME280;16267;48.194;11.546;2023-04-12T02:53:42;95481.16;;;7.06;83.25
29239;BME280;16267;48.194;11.546;2023-04-12T02:56:08;95486.16;;;7.00;84.28
29239;BME280;16267;48.194;11.546;2023-04-12T02:58:35;95469.84;;;6.87;85.17
29239;BME280;16267;48.194;11.546;2023-04-12T03:01:02;95465.22;;;6.91;85.73
29239;BME280;16267;48.194;11.546;2023-04-12T03:03:33;95468.31;;;6.83;86.72
29239;BME280;16267;48.194;11.546;2023-04-12T03:05:59;95462.59;;;6.84;86.66
29239;BME280;16267;48.194;11.546;2023-04-12T03:08:25;95458.44;;;6.76;88.65
29239;BME280;16267;48.194;11.546;2023-04-12T03:10:51;95459.19;;;6.77;88.37
29239;BME280;16267;48.194;11.546;2023-04-12T03:13:16;95455.03;;;6.72;89.13
29239;BME280;16267;48.194;11.546;2023-04-12T03:15:43;95452.34;;;6.72;89.32
29239;BME280;16267;48.194;11.546;2023-04-12T03:18:09;95459.97;;;6.77;89.24
29239;BME280;16267;48.194;11.546;2023-04-12T03:20:36;95447.78;;;6.76;89.70
29239;BME280;16267;48.194;11.546;2023-04-12T03:23:03;95443.97;;;6.74;89.15
29239;BME280;16267;48.194;11.546;2023-04-12T03:25:29;95449.72;;;6.68;90.35
29239;BME280;16267;48.194;11.546;2023-04-12T03:27:55;95426.84;;;6.71;91.06
29239;BME280;16267;48.194;11.546;2023-04-12T03:30:21;95437.91;;;6.66;90.90
29239;BME280;16267;48.194;11.546;2023-04-12T03:32:47;95433.69;;;6.65;92.36
29239;BME280;16267;48.194;11.546;2023-04-12T03:35:13;95439.03;;;6.68;91.73
29239;BME280;16267;48.194;11.546;2023-04-12T03:37:42;95428.38;;;6.65;91.81
29239;BME280;16267;48.194;11.546;2023-04-12T03:40:08;95434.47;;;6.62;91.55
29239;BME280;16267;48.194;11.546;2023-04-12T03:42:35;95437.13;;;6.69;92.29
29239;BME280;16267;48.194;11.546;2023-04-12T03:45:01;95425.69;;;6.72;91.90
29239;BME280;16267;48.194;11.546;2023-04-12T03:47:27;95427.97;;;6.74;91.08
29239;BME280;16267;48.194;11.546;2023-04-12T03:50:05;95420.72;;;6.74;91.15
29239;BME280;16267;48.194;11.546;2023-04-12T03:52:32;95416.91;;;6.75;91.49
29239;BME280;16267;48.194;11.546;2023-04-12T03:54:58;95427.25;;;6.66;92.49
29239;BME280;16267;48.194;11.546;2023-04-12T03:57:24;95418.91;;;6.53;93.78
29239;BME280;16267;48.194;11.546;2023-04-12T03:59:50;95420.84;;;6.42;94.38
29239;BME280;16267;48.194;11.546;2023-04-12T04:02:16;95412.44;;;6.51;95.05
29239;BME280;16267;48.194;11.546;2023-04-12T04:04:42;95409.75;;;6.58;94.68
29239;BME280;16267;48.194;11.546;2023-04-12T04:07:09;95405.94;;;6.62;93.56
29239;BME280;16267;48.194;11.546;2023-04-12T04:09:35;95402.09;;;6.67;92.74
29239;BME280;16267;48.194;11.546;2023-04-12T04:12:01;95397.50;;;6.71;92.24
29239;BME280;16267;48.194;11.546;2023-04-12T04:14:27;95392.53;;;6.73;91.26
29239;BME280;16267;48.194;11.546;2023-04-12T04:16:52;95383.38;;;6.74;90.88
29239;BME280;16267;48.194;11.546;2023-04-12T04:19:20;95382.63;;;6.77;91.37
29239;BME280;16267;48.194;11.546;2023-04-12T04:21:46;95376.88;;;6.79;91.07
29239;BME280;16267;48.194;11.546;2023-04-12T04:24:12;95379.94;;;6.77;90.87
29239;BME280;16267;48.194;11.546;2023-04-12T04:26:38;95377.28;;;6.77;90.86
29239;BME280;16267;48.194;11.546;2023-04-12T04:29:04;95381.84;;;6.80;91.42
29239;BME280;16267;48.194;11.546;2023-04-12T04:31:31;95374.19;;;6.79;91.68
29239;BME280;16267;48.194;11.546;2023-04-12T04:34:01;95382.22;;;6.79;90.66
29239;BME280;16267;48.194;11.546;2023-04-12T04:36:35;95373.81;;;6.80;90.64
29239;BME280;16267;48.194;11.546;2023-04-12T04:39:02;95371.53;;;6.82;90.60
29239;BME280;16267;48.194;11.546;2023-04-12T04:41:30;95370.00;;;6.81;89.82
29239;BME280;16267;48.194;11.546;2023-04-12T04:43:59;95378.03;;;6.78;90.70
29239;BME280;16267;48.194;11.546;2023-04-12T04:46:25;95379.53;;;6.82;90.87
29239;BME280;16267;48.194;11.546;2023-04-12T04:48:55;95371.94;;;6.77;91.61
29239;BME280;16267;48.194;11.546;2023-04-12T04:51:21;95370.00;;;6.81;91.33
29239;BME280;16267;48.194;11.546;2023-04-12T04:53:46;95367.34;;;6.81;90.32
29239;BME280;16267;48.194;11.546;2023-04-12T04:56:13;95374.59;;;6.81;89.89
29239;BME280;16267;48.194;11.546;2023-04-12T04:58:38;95364.38;;;6.68;90.96
29239;BME280;16267;48.194;11.546;2023-04-12T05:01:04;95360.53;;;6.77;91.71
29239;BME280;16267;48.194;11.546;2023-04-12T05:03:31;95357.81;;;6.80;91.79
29239;BME280;16267;48.194;11.546;2023-04-12T05:06:00;95348.34;;;6.72;90.63
29239;BME280;16267;48.194;11.546;2023-04-12T05:08:28;95354.50;;;6.65;91.54
29239;BME280;16267;48.194;11.546;2023-04-12T05:10:55;95350.25;;;6.72;93.06
29239;BME280;16267;48.194;11.546;2023-04-12T05:13:21;95346.84;;;6.67;92.96
29239;BME280;16267;48.194;11.546;2023-04-12T05:15:48;95336.53;;;6.69;93.30
29239;BME280;16267;48.194;11.546;2023-04-12T05:18:14;95343.38;;;6.70;93.63
29239;BME280;16267;48.194;11.546;2023-04-12T05:20:40;95346.47;;;6.69;93.48
29239;BME280;16267;48.194;11.546;2023-04-12T05:23:06;95334.28;;;6.68;94.58
29239;BME280;16267;48.194;11.546;2023-04-12T05:25:32;95332.38;;;6.65;94.06
29239;BME280;16267;48.194;11.546;2023-04-12T05:27:59;95329.69;;;6.72;94.90
29239;BME280;16267;48.194;11.546;2023-04-12T05:30:24;95313.31;;;6.70;94.65
29239;BME280;16267;48.194;11.546;2023-04-12T05:32:50;95315.22;;;6.69;94.51
29239;BME280;16267;48.194;11.546;2023-04-12T05:35:16;95316.81;;;6.60;94.26
29239;BME280;16267;48.194;11.546;2023-04-12T05:37:42;95307.66;;;6.61;94.65
29239;BME280;16267;48.194;11.546;2023-04-12T05:40:08;95306.84;;;6.67;94.88
29239;BME280;16267;48.194;11.546;2023-04-12T05:42:35;95302.25;;;6.72;94.91
29239;BME280;16267;48.194;11.546;2023-04-12T05:45:04;95306.06;;;6.70;93.74
29239;BME280;16267;48.194;11.546;2023-04-12T05:47:31;95298.47;;;6.69;93.92
29239;BME280;16267;48.194;11.546;2023-04-12T05:49:57;95298.44;;;6.73;94.64
29239;BME280;16267;48.194;11.546;2023-04-12T05:52:23;95292.75;;;6.67;93.69
29239;BME280;16267;48.194;11.546;2023-04-12T05:54:48;95291.63;;;6.68;94.53
29239;BME280;16267;48.194;11.546;2023-04-12T05:57:14;95290.94;;;6.53;94.39
29239;BME280;16267;48.194;11.546;2023-04-12T05:59:42;95280.25;;;6.53;95.45
29239;BME280;16267;48.194;11.546;2023-04-12T06:02:08;95280.22;;;6.57;95.82
29239;BME280;16267;48.194;11.546;2023-04-12T06:04:35;95275.25;;;6.66;96.48
29239;BME280;16267;48.194;11.546;2023-04-12T06:07:02;95272.97;;;6.64;95.67
29239;BME280;16267;48.194;11.546;2023-04-12T06:09:30;95265.38;;;6.63;95.49
29239;BME280;16267;48.194;11.546;2023-04-12T06:11:56;95270.31;;;6.61;95.25
29239;BME280;16267;48.194;11.546;2023-04-12T06:14:22;95264.25;;;6.57;96.23
29239;BME280;16267;48.194;11.546;2023-04-12T06:16:48;95264.72;;;6.44;96.34
29239;BME280;16267;48.194;11.546;2023-04-12T06:19:13;95264.72;;;6.41;96.61
29239;BME280;16267;48.194;11.546;2023-04-12T06:21:39;95259.41;;;6.37;96.91
29239;BME280;16267;48.194;11.546;2023-04-12T06:24:06;95252.84;;;6.53;98.31
29239;BME280;16267;48.194;11.546;2023-04-12T06:26:32;95258.91;;;6.57;97.62
29239;BME280;16267;48.194;11.546;2023-04-12T06:28:57;95257.72;;;6.65;97.49
29239;BME280;16267;48.194;11.546;2023-04-12T06:31:23;95253.94;;;6.62;97.27
29239;BME280;16267;48.194;11.546;2023-04-12T06:33:49;95242.56;;;6.55;97.35
29239;BME280;16267;48.194;11.546;2023-04-12T06:36:15;95242.56;;;6.55;97.72
29239;BME280;16267;48.194;11.546;2023-04-12T06:38:41;95239.81;;;6.65;98.26
29239;BME280;16267;48.194;11.546;2023-04-12T06:41:07;95232.13;;;6.75;98.10
29239;BME280;16267;48.194;11.546;2023-04-12T06:43:32;95233.66;;;6.72;98.95
29239;BME280;16267;48.194;11.546;2023-04-12T06:45:58;95228.66;;;6.78;98.81
29239;BME280;16267;48.194;11.546;2023-04-12T06:48:27;95232.03;;;6.85;98.25
29239;BME280;16267;48.194;11.546;2023-04-12T06:50:54;95222.63;;;6.70;97.00
29239;BME280;16267;48.194;11.546;2023-04-12T06:53:20;95224.78;;;6.86;98.60
29239;BME280;16267;48.194;11.546;2023-04-12T06:55:47;95217.97;;;6.85;98.16
29239;BME280;16267;48.194;11.546;2023-04-12T06:58:12;95217.97;;;6.85;98.34
29239;BME280;16267;48.194;11.546;2023-04-12T07:00:38;95209.22;;;6.81;98.18
29239;BME280;16267;48.194;11.546;2023-04-12T07:03:04;95206.88;;;6.86;99.24
29239;BME280;16267;48.194;11.546;2023-04-12T07:05:30;95210.97;;;6.98;100.00
29239;BME280;16267;48.194;11.546;2023-04-12T07:07:56;95207.81;;;7.10;100.00
29239;BME280;16267;48.194;11.546;2023-04-12T07:10:21;95204.69;;;7.19;99.29
29239;BME280;16267;48.194;11.546;2023-04-12T07:12:47;95213.47;;;7.16;98.50
29239;BME280;16267;48.194;11.546;2023-04-12T07:15:13;95203.50;;;7.24;100.00
29239;BME280;16267;48.194;11.546;2023-04-12T07:17:39;95202.28;;;7.32;100.00
29239;BME280;16267;48.194;11.546;2023-04-12T07:20:05;95194.53;;;7.41;100.00
29239;BME280;16267;48.194;11.546;2023-04-12T07:22:31;95188.03;;;7.46;99.66
29239;BME280;16267;48.194;11.546;2023-04-12T07:24:57;95199.47;;;7.43;98.77
29239;BME280;16267;48.194;11.546;2023-04-12T07:27:23;95204.16;;;7.35;98.34
29239;BME280;16267;48.194;11.546;2023-04-12T07:29:51;95197.72;;;7.29;99.08
29239;BME280;16267;48.194;11.546;2023-04-12T07:32:18;95197.38;;;7.27;98.71
29239;BME280;16267;48.194;11.546;2023-04-12T07:34:43;95190.75;;;7.38;100.00
29239;BME280;16267;48.194;11.546;2023-04-12T07:37:09;95189.16;;;7.45;99.94
29239;BME280;16267;48.194;11.546;2023-04-12T07:39:35;95184.56;;;7.45;100.00
29239;BME280;16267;48.194;11.546;2023-04-12T07:42:01;95179.59;;;7.47;99.54
29239;BME280;16267;48.194;11.546;2023-04-12T07:44:27;95177.56;;;7.58;99.86
29239;BME280;16267;48.194;11.546;2023-04-12T07:46:53;95168.44;;;7.56;99.03
29239;BME280;16267;48.194;11.546;2023-04-12T07:49:18;95162.25;;;7.63;99.42
29239;BME280;16267;48.194;11.546;2023-04-12T07:51:44;95166.00;;;7.69;99.20
29239;BME280;16267;48.194;11.546;2023-04-12T07:54:10;95165.13;;;7.79;100.00
29239;BME280;16267;48.194;11.546;2023-04-12T07:56:37;95157.34;;;7.88;100.00
29239;BME280;16267;48.194;11.546;2023-04-12T07:59:03;95152.09;;;7.81;100.00
29239;BME280;16267;48.194;11.546;2023-04-12T08:01:29;95149.41;;;7.81;99.18
29239;BME280;16267;48.194;11.546;2023-04-12T08:03:54;95151.50;;;7.97;100.00
29239;BME280;16267;48.194;11.546;2023-04-12T08:06:20;95143.25;;;7.88;100.00
29239;BME280;16267;48.194;11.546;2023-04-12T08:08:46;95141.13;;;8.02;100.00
29239;BME280;16267;48.194;11.546;2023-04-12T08:11:11;95142.09;;;8.16;100.00
29239;BME280;16267;48.194;11.546;2023-04-12T08:13:37;95135.47;;;8.24;100.00
29239;BME280;16267;48.194;11.546;2023-04-12T08:16:03;95142.84;;;8.16;100.00
29239;BME280;16267;48.194;11.546;2023-04-12T08:18:29;95137.59;;;8.09;99.50
29239;BME280;16267;48.194;11.546;2023-04-12T08:20:57;95129.91;;;8.15;99.22
29239;BME280;16267;48.194;11.546;2023-04-12T08:23:23;95129.84;;;8.18;99.92
29239;BME280;16267;48.194;11.546;2023-04-12T08:25:49;95124.13;;;8.16;99.44
29239;BME280;16267;48.194;11.546;2023-04-12T08:28:15;95119.28;;;8.08;99.11
29239;BME280;16267;48.194;11.546;2023-04-12T08:30:42;95114.31;;;8.10;100.00
29239;BME280;16267;48.194;11.546;2023-04-12T08:33:08;95113.19;;;8.07;100.00
29239;BME280;16267;48.194;11.546;2023-04-12T08:35:33;95104.38;;;8.10;100.00
29239;BME280;16267;48.194;11.546;2023-04-12T08:37:59;95106.22;;;8.13;100.00
29239;BME280;16267;48.194;11.546;2023-04-12T08:40:31;95096.22;;;8.17;100.00
29239;BME280;16267;48.194;11.546;2023-04-12T08:43:00;95098.06;;;8.24;100.00
29239;BME280;16267;48.194;11.546;2023-04-12T08:45:29;95085.66;;;8.34;100.00
29239;BME280;16267;48.194;11.546;2023-04-12T08:47:58;95080.53;;;8.46;100.00
29239;BME280;16267;48.194;11.546;2023-04-12T08:50:25;95073.81;;;8.58;100.00
29239;BME280;16267;48.194;11.546;2023-04-12T08:52:52;95072.69;;;8.59;100.00
29239;BME280;16267;48.194;11.546;2023-04-12T08:55:17;95062.50;;;8.51;100.00
29239;BME280;16267;48.194;11.546;2023-04-12T08:57:43;95052.22;;;8.49;100.00
29239;BME280;16267;48.194;11.546;2023-04-12T09:00:10;95059.50;;;8.48;100.00
29239;BME280;16267;48.194;11.546;2023-04-12T09:02:38;95051.59;;;8.61;100.00
29239;BME280;16267;48.194;11.546;2023-04-12T09:05:04;95040.72;;;8.72;100.00
29239;BME280;16267;48.194;11.546;2023-04-12T09:07:31;95049.03;;;8.78;100.00
29239;BME280;16267;48.194;11.546;2023-04-12T09:09:57;95048.41;;;8.70;100.00
29239;BME280;16267;48.194;11.546;2023-04-12T09:12:23;95035.59;;;8.81;100.00
29239;BME280;16267;48.194;11.546;2023-04-12T09:15:21;95041.91;;;8.91;100.00
29239;BME280;16267;48.194;11.546;2023-04-12T09:17:47;95044.72;;;9.04;100.00
29239;BME280;16267;48.194;11.546;2023-04-12T09:22:43;95034.09;;;9.20;100.00
29239;BME280;16267;48.194;11.546;2023-04-12T09:25:13;95030.34;;;9.34;100.00
29239;BME280;16267;48.194;11.546;2023-04-12T09:27:47;95027.44;;;9.45;100.00
29239;BME280;16267;48.194;11.546;2023-04-12T09:30:14;95021.84;;;9.55;100.00
29239;BME280;16267;48.194;11.546;2023-04-12T09:32:40;95015.91;;;9.64;100.00
29239;BME280;16267;48.194;11.546;2023-04-12T09:35:07;95016.84;;;9.74;100.00
29239;BME280;16267;48.194;11.546;2023-04-12T09:37:33;95014.84;;;9.78;98.71
29239;BME280;16267;48.194;11.546;2023-04-12T09:40:06;94997.34;;;9.90;99.97
29239;BME280;16267;48.194;11.546;2023-04-12T09:42:33;94994.72;;;10.02;100.00
29239;BME280;16267;48.194;11.546;2023-04-12T09:45:00;94985.78;;;10.09;99.13
29239;BME280;16267;48.194;11.546;2023-04-12T09:47:38;94979.00;;;10.04;98.83
29239;BME280;16267;48.194;11.546;2023-04-12T09:50:05;94972.78;;;10.08;97.19
29239;BME280;16267;48.194;11.546;2023-04-12T09:52:38;94973.63;;;10.04;96.75
29239;BME280;16267;48.194;11.546;2023-04-12T09:55:11;94966.09;;;9.99;96.55
29239;BME280;16267;48.194;11.546;2023-04-12T09:57:41;94958.56;;;9.78;94.96
29239;BME280;16267;48.194;11.546;2023-04-12T10:00:10;94961.91;;;9.98;95.07
29239;BME280;16267;48.194;11.546;2023-04-12T10:02:45;94952.84;;;10.09;94.54
29239;BME280;16267;48.194;11.546;2023-04-12T10:05:15;94952.06;;;10.41;97.32
29239;BME280;16267;48.194;11.546;2023-04-12T10:07:42;94944.94;;;10.63;96.00
29239;BME280;16267;48.194;11.546;2023-04-12T10:10:13;94951.63;;;10.71;94.09
29239;BME280;16267;48.194;11.546;2023-04-12T10:12:41;94945.63;;;10.80;90.78
29239;BME280;16267;48.194;11.546;2023-04-12T10:15:09;94942.41;;;10.85;89.16
29239;BME280;16267;48.194;11.546;2023-04-12T10:17:53;94939.69;;;10.60;87.96
29239;BME280;16267;48.194;11.546;2023-04-12T10:20:21;94929.44;;;10.97;91.25
29239;BME280;16267;48.194;11.546;2023-04-12T10:22:51;94933.66;;;10.98;87.99
29239;BME280;16267;48.194;11.546;2023-04-12T10:25:22;94916.97;;;10.90;82.75
29239;BME280;16267;48.194;11.546;2023-04-12T10:27:50;94925.03;;;10.90;82.34
29239;BME280;16267;48.194;11.546;2023-04-12T10:30:26;94914.75;;;11.01;84.75
29239;BME280;16267;48.194;11.546;2023-04-12T10:35:47;94908.72;;;11.35;79.93
29239;BME280;16267;48.194;11.546;2023-04-12T10:38:14;94905.50;;;11.53;80.68
29239;BME280;16267;48.194;11.546;2023-04-12T10:41:19;94906.13;;;11.57;78.48
29239;BME280;16267;48.194;11.546;2023-04-12T10:43:47;94891.56;;;11.80;79.20
29239;BME280;16267;48.194;11.546;2023-04-12T10:49:09;94886.88;;;12.19;77.74
29239;BME280;16267;48.194;11.546;2023-04-12T10:51:35;94877.97;;;12.32;76.27
29239;BME280;16267;48.194;11.546;2023-04-12T10:56:35;94879.72;;;12.69;78.99
29239;BME280;16267;48.194;11.546;2023-04-12T10:59:07;94867.50;;;12.78;74.04
29239;BME280;16267;48.194;11.546;2023-04-12T11:01:34;94865.84;;;12.80;71.98
29239;BME280;16267;48.194;11.546;2023-04-12T11:04:17;94862.16;;;12.87;72.35
29239;BME280;16267;48.194;11.546;2023-04-12T11:06:54;94863.38;;;12.95;70.28
29239;BME280;16267;48.194;11.546;2023-04-12T11:09:43;94849.22;;;13.13;74.25
29239;BME280;16267;48.194;11.546;2023-04-12T11:19:41;94854.63;;;13.44;70.04
29239;BME280;16267;48.194;11.546;2023-04-12T11:22:10;94848.28;;;13.38;69.54
29239;BME280;16267;48.194;11.546;2023-04-12T11:24:48;94838.13;;;13.51;70.69
29239;BME280;16267;48.194;11.546;2023-04-12T11:27:15;94835.31;;;13.64;70.50
29239;BME280;16267;48.194;11.546;2023-04-12T11:29:42;94815.72;;;13.64;68.58
29239;BME280;16267;48.194;11.546;2023-04-12T11:32:12;94824.53;;;13.73;68.19
29239;BME280;16267;48.194;11.546;2023-04-12T11:34:40;94829.34;;;13.78;67.40
29239;BME280;16267;48.194;11.546;2023-04-12T11:37:07;94829.78;;;13.77;66.95
29239;BME280;16267;48.194;11.546;2023-04-12T11:39:37;94823.19;;;13.87;66.83
29239;BME280;16267;48.194;11.546;2023-04-12T11:42:04;94820.66;;;13.93;64.93
29239;BME280;16267;48.194;11.546;2023-04-12T11:44:33;94827.69;;;13.99;66.23
29239;BME280;16267;48.194;11.546;2023-04-12T11:46:59;94823.34;;;13.93;66.62
29239;BME280;16267;48.194;11.546;2023-04-12T11:49:28;94804.91;;;14.00;68.04
29239;BME280;16267;48.194;11.546;2023-04-12T11:52:04;94803.84;;;14.07;67.09
29239;BME280;16267;48.194;11.546;2023-04-12T11:54:30;94811.19;;;14.06;67.03
29239;BME280;16267;48.194;11.546;2023-04-12T11:56:59;94810.16;;;14.04;66.12
29239;BME280;16267;48.194;11.546;2023-04-12T11:59:32;94815.56;;;13.86;67.00
29239;BME280;16267;48.194;11.546;2023-04-12T12:02:00;94801.91;;;13.98;68.04
29239;BME280;16267;48.194;11.546;2023-04-12T12:04:27;94821.72;;;13.86;65.32
29239;BME280;16267;48.194;11.546;2023-04-12T12:06:56;94815.84;;;13.88;65.70
29239;BME280;16267;48.194;11.546;2023-04-12T12:09:25;94817.34;;;13.79;65.87
29239;BME280;16267;48.194;11.546;2023-04-12T12:11:53;94812.09;;;13.85;66.61
29239;BME280;16267;48.194;11.546;2023-04-12T12:14:21;94821.53;;;13.99;66.30
29239;BME280;16267;48.194;11.546;2023-04-12T12:19:46;94809.53;;;14.18;66.08
29239;BME280;16267;48.194;11.546;2023-04-12T12:22:20;94814.63;;;14.25;64.68
29239;BME280;16267;48.194;11.546;2023-04-12T12:24:55;94818.69;;;14.12;64.52
29239;BME280;16267;48.194;11.546;2023-04-12T12:27:24;94816.72;;;14.21;65.47
29239;BME280;16267;48.194;11.546;2023-04-12T12:29:53;94804.00;;;14.22;64.72
29239;BME280;16267;48.194;11.546;2023-04-12T12:32:19;94800.81;;;14.33;66.03
29239;BME280;16267;48.194;11.546;2023-04-12T12:34:55;94798.41;;;14.44;65.91
29239;BME280;16267;48.194;11.546;2023-04-12T12:37:26;94800.94;;;14.57;64.95
29239;BME280;16267;48.194;11.546;2023-04-12T12:40:11;94804.53;;;14.63;64.00
29239;BME280;16267;48.194;11.546;2023-04-12T12:42:52;94797.47;;;14.65;63.63
29239;BME280;16267;48.194;11.546;2023-04-12T12:45:21;94793.09;;;14.77;63.13
29239;BME280;16267;48.194;11.546;2023-04-12T12:47:53;94778.34;;;14.87;63.00
29239;BME280;16267;48.194;11.546;2023-04-12T12:50:23;94782.50;;;14.98;64.58
29239;BME280;16267;48.194;11.546;2023-04-12T12:52:50;94774.50;;;15.03;63.84
29239;BME280;16267;48.194;11.546;2023-04-12T12:55:17;94774.34;;;15.07;62.49
29239;BME280;16267;48.194;11.546;2023-04-12T12:57:44;94771.19;;;15.08;61.24
29239;BME280;16267;48.194;11.546;2023-04-12T13:00:15;94776.00;;;15.04;60.67
29239;BME280;16267;48.194;11.546;2023-04-12T13:02:42;94778.44;;;15.02;61.55
29239;BME280;16267;48.194;11.546;2023-04-12T13:05:08;94778.31;;;14.97;59.89
29239;BME280;16267;48.194;11.546;2023-04-12T13:07:35;94767.09;;;14.89;59.85
29239;BME280;16267;48.194;11.546;2023-04-12T13:10:01;94772.38;;;14.83;60.44
29239;BME280;16267;48.194;11.546;2023-04-12T13:12:27;94773.09;;;14.84;61.51
29239;BME280;16267;48.194;11.546;2023-04-12T13:14:53;94763.97;;;14.81;61.91
29239;BME280;16267;48.194;11.546;2023-04-12T13:17:19;94762.91;;;14.79;61.84
29239;BME280;16267;48.194;11.546;2023-04-12T13:19:45;94772.50;;;14.80;62.16
29239;BME280;16267;48.194;11.546;2023-04-12T13:22:15;94760.38;;;14.75;60.51
29239;BME280;16267;48.194;11.546;2023-04-12T13:24:44;94761.44;;;14.78;61.98
29239;BME280;16267;48.194;11.546;2023-04-12T13:27:11;94761.69;;;14.80;62.20